createdAt,value
2023-01-09T00:00:30.454Z,84.40
2023-01-09T00:02:58.808Z,84.50
2023-01-09T00:05:27.155Z,84.60
2023-01-09T00:07:55.195Z,84.70
2023-01-09T00:10:24.406Z,84.70
2023-01-09T00:12:54.044Z,84.90
2023-01-09T00:15:22.067Z,85.00
2023-01-09T00:17:50.292Z,85.10
2023-01-09T00:20:19.029Z,85.20
2023-01-09T00:22:47.379Z,85.20
2023-01-09T00:25:15.719Z,85.10
2023-01-09T00:27:44.020Z,85.10
2023-01-09T00:30:14.229Z,85.10
2023-01-09T00:32:42.694Z,85.10
2023-01-09T00:35:13.025Z,85.10
2023-01-09T00:37:41.298Z,85.10
2023-01-09T00:40:10.257Z,85.20
2023-01-09T00:42:38.990Z,85.10
2023-01-09T00:45:09.566Z,85.00
2023-01-09T00:47:40.870Z,85.00
2023-01-09T00:50:11.528Z,85.00
2023-01-09T00:52:41.499Z,85.00
2023-01-09T00:55:10.337Z,85.00
2023-01-09T00:57:38.629Z,85.00
2023-01-09T01:00:07.534Z,85.00
2023-01-09T01:02:35.730Z,84.90
2023-01-09T01:05:22.832Z,84.80
2023-01-09T01:07:51.089Z,84.80
2023-01-09T01:10:21.052Z,84.80
2023-01-09T01:12:49.757Z,84.80
2023-01-09T01:15:18.908Z,84.80
2023-01-09T01:17:47.307Z,84.80
2023-01-09T01:20:18.033Z,84.80
2023-01-09T01:22:46.502Z,84.80
2023-01-09T01:25:16.663Z,84.80
2023-01-09T01:27:45.313Z,84.80
2023-01-09T01:30:15.099Z,84.70
2023-01-09T01:32:43.947Z,84.80
2023-01-09T01:35:12.737Z,84.90
2023-01-09T01:37:42.347Z,84.80
2023-01-09T01:40:12.437Z,84.60
2023-01-09T01:42:46.433Z,84.60
2023-01-09T01:45:16.318Z,84.80
2023-01-09T01:47:50.287Z,84.80
2023-01-09T01:50:26.019Z,84.80
2023-01-09T01:52:56.803Z,84.70
2023-01-09T01:55:24.909Z,84.70
2023-01-09T01:57:56.399Z,84.70
2023-01-09T02:00:27.138Z,84.70
2023-01-09T02:02:57.141Z,84.80
2023-01-09T02:05:25.288Z,84.60
2023-01-09T02:07:53.514Z,84.50
2023-01-09T02:10:23.935Z,84.50
2023-01-09T02:12:52.279Z,84.40
2023-01-09T02:15:20.927Z,84.30
2023-01-09T02:18:04.095Z,84.10
2023-01-09T02:20:45.643Z,84.50
2023-01-09T02:23:33.751Z,84.40
2023-01-09T02:26:13.963Z,84.30
2023-01-09T02:28:55.953Z,84.30
2023-01-09T02:31:28.205Z,84.30
2023-01-09T02:34:01.785Z,84.30
2023-01-09T02:36:31.939Z,84.20
2023-01-09T02:39:05.337Z,84.20
2023-01-09T02:41:37.764Z,84.20
2023-01-09T02:44:18.730Z,84.30
2023-01-09T02:46:48.552Z,84.20
2023-01-09T02:49:17.917Z,84.20
2023-01-09T02:51:52.299Z,84.10
2023-01-09T02:54:24.787Z,84.10
2023-01-09T02:57:00.009Z,84.10
2023-01-09T02:59:30.795Z,84.20
2023-01-09T03:02:07.732Z,84.20
2023-01-09T03:04:41.435Z,84.30
2023-01-09T03:07:12.646Z,84.30
2023-01-09T03:09:42.696Z,84.30
2023-01-09T03:12:13.440Z,84.20
2023-01-09T03:14:45.589Z,84.20
2023-01-09T03:17:16.678Z,84.20
2023-01-09T03:19:46.506Z,84.10
2023-01-09T03:22:15.813Z,84.10
2023-01-09T03:24:43.793Z,84.10
2023-01-09T03:27:12.473Z,84.00
2023-01-09T03:29:40.358Z,84.00
2023-01-09T03:32:08.879Z,83.90
2023-01-09T03:34:38.695Z,83.90
2023-01-09T03:37:06.698Z,83.80
2023-01-09T03:39:34.730Z,83.80
2023-01-09T03:42:02.968Z,83.80
2023-01-09T03:44:31.315Z,83.80
2023-01-09T03:46:59.686Z,83.70
2023-01-09T03:49:27.711Z,83.60
2023-01-09T03:51:57.228Z,83.50
2023-01-09T03:54:25.753Z,83.50
2023-01-09T03:56:53.800Z,83.50
2023-01-09T03:59:21.947Z,83.50
2023-01-09T04:01:50.339Z,83.50
2023-01-09T04:04:18.469Z,83.40
2023-01-09T04:06:46.679Z,83.40
2023-01-09T04:09:16.148Z,83.40
2023-01-09T04:11:44.533Z,83.50
2023-01-09T04:14:12.693Z,83.50
2023-01-09T04:16:41.011Z,83.30
2023-01-09T04:19:09.020Z,83.10
2023-01-09T04:21:37.046Z,82.90
2023-01-09T04:24:05.687Z,82.70
2023-01-09T04:26:35.120Z,82.50
2023-01-09T04:29:03.832Z,82.50
2023-01-09T04:31:31.938Z,82.60
2023-01-09T04:34:00.222Z,82.70
2023-01-09T04:36:28.441Z,82.80
2023-01-09T04:38:56.771Z,83.00
2023-01-09T04:41:44.994Z,83.20
2023-01-09T04:44:14.855Z,83.30
2023-01-09T04:46:42.979Z,83.20
2023-01-09T04:49:11.451Z,83.10
2023-01-09T04:51:39.628Z,83.00
2023-01-09T04:54:07.909Z,83.10
2023-01-09T04:56:36.762Z,83.00
2023-01-09T04:59:05.664Z,82.90
2023-01-09T05:01:35.738Z,82.80
2023-01-09T05:04:04.501Z,82.80
2023-01-09T05:06:32.557Z,83.10
2023-01-09T05:09:00.744Z,83.10
2023-01-09T05:11:29.464Z,83.20
2023-01-09T05:13:57.515Z,83.30
2023-01-09T05:16:25.486Z,83.40
2023-01-09T05:18:57.382Z,83.30
2023-01-09T05:21:25.647Z,83.10
2023-01-09T05:23:53.941Z,83.10
2023-01-09T05:26:24.213Z,82.90
2023-01-09T05:28:52.813Z,82.90
2023-01-09T05:31:21.835Z,82.80
2023-01-09T05:33:51.134Z,82.90
2023-01-09T05:36:20.821Z,82.80
2023-01-09T05:38:49.116Z,82.90
2023-01-09T05:41:17.096Z,82.90
2023-01-09T05:43:45.475Z,82.80
2023-01-09T05:46:13.655Z,82.40
2023-01-09T05:48:41.612Z,82.20
2023-01-09T05:51:10.101Z,82.10
2023-01-09T05:53:39.750Z,81.90
2023-01-09T05:56:08.122Z,81.80
2023-01-09T05:58:36.624Z,81.70
2023-01-09T06:01:04.932Z,81.60
2023-01-09T06:03:33.432Z,81.70
2023-01-09T06:06:01.925Z,81.90
2023-01-09T06:08:30.194Z,82.10
2023-01-09T06:10:59.838Z,82.20
2023-01-09T06:13:27.875Z,82.40
2023-01-09T06:15:57.301Z,82.60
2023-01-09T06:18:25.670Z,82.80
2023-01-09T06:20:54.011Z,83.10
2023-01-09T06:23:22.417Z,83.10
2023-01-09T06:25:50.564Z,82.90
2023-01-09T06:28:20.248Z,82.60
2023-01-09T06:30:51.432Z,82.40
2023-01-09T06:33:20.070Z,82.30
2023-01-09T06:35:48.354Z,82.00
2023-01-09T06:38:16.649Z,81.60
2023-01-09T06:40:45.200Z,81.80
2023-01-09T06:43:13.436Z,82.00
2023-01-09T06:45:43.175Z,82.10
2023-01-09T06:48:11.847Z,82.00
2023-01-09T06:50:39.915Z,81.50
2023-01-09T06:53:07.937Z,81.60
2023-01-09T06:55:36.559Z,81.30
2023-01-09T06:58:04.897Z,81.20
2023-01-09T07:00:33.508Z,81.10
2023-01-09T07:03:03.594Z,81.00
2023-01-09T07:05:32.202Z,80.80
2023-01-09T07:08:00.599Z,81.00
2023-01-09T07:10:28.873Z,80.90
2023-01-09T07:12:57.544Z,80.90
2023-01-09T07:15:25.547Z,80.80
2023-01-09T07:17:54.932Z,80.70
2023-01-09T07:20:24.812Z,80.30
2023-01-09T07:22:54.276Z,80.40
2023-01-09T07:25:22.328Z,80.20
2023-01-09T07:27:50.565Z,80.20
2023-01-09T07:30:18.795Z,80.30
2023-01-09T07:32:46.784Z,80.40
2023-01-09T07:35:15.139Z,80.20
2023-01-09T07:37:44.916Z,80.40
2023-01-09T07:40:13.307Z,80.40
2023-01-09T07:42:41.299Z,80.50
2023-01-09T07:45:09.904Z,80.80
2023-01-09T07:47:38.241Z,80.70
2023-01-09T07:50:08.016Z,80.90
2023-01-09T07:52:36.581Z,80.90
2023-01-09T07:55:06.955Z,81.10
2023-01-09T07:57:35.339Z,81.30
2023-01-09T08:00:03.731Z,81.30
2023-01-09T08:02:40.764Z,81.40
2023-01-09T08:05:13.768Z,81.40
2023-01-09T08:07:42.652Z,81.20
2023-01-09T08:10:13.752Z,81.00
2023-01-09T08:12:43.622Z,80.90
2023-01-09T08:15:12.615Z,80.70
2023-01-09T08:17:42.495Z,80.40
2023-01-09T08:20:12.081Z,80.50
2023-01-09T08:22:40.522Z,80.50
2023-01-09T08:25:11.983Z,80.60
2023-01-09T08:27:42.581Z,80.50
2023-01-09T08:30:11.615Z,80.60
2023-01-09T08:32:40.233Z,80.60
2023-01-09T08:35:09.029Z,80.40
2023-01-09T08:37:37.489Z,80.50
2023-01-09T08:40:06.439Z,80.50
2023-01-09T08:42:52.500Z,80.50
2023-01-09T08:45:39.627Z,80.40
2023-01-09T08:48:11.049Z,80.50
2023-01-09T08:50:39.445Z,80.40
2023-01-09T08:53:07.829Z,80.30
2023-01-09T08:55:35.873Z,80.40
2023-01-09T08:58:04.416Z,80.40
2023-01-09T09:00:34.039Z,80.30
2023-01-09T09:03:02.179Z,80.30
2023-01-09T09:05:31.449Z,80.20
2023-01-09T09:08:00.474Z,80.40
2023-01-09T09:10:29.979Z,80.50
2023-01-09T09:12:59.536Z,80.60
2023-01-09T09:15:28.398Z,80.50
2023-01-09T09:17:58.795Z,80.70
2023-01-09T09:20:29.800Z,80.90
2023-01-09T09:23:00.001Z,81.10
2023-01-09T09:25:28.846Z,80.90
2023-01-09T09:27:58.300Z,80.90
2023-01-09T09:30:26.792Z,81.30
2023-01-09T09:32:55.866Z,81.50
2023-01-09T09:35:28.621Z,81.80
2023-01-09T09:37:57.631Z,82.10
2023-01-09T09:40:33.695Z,82.70
2023-01-09T09:43:36.337Z,82.60
2023-01-09T09:46:15.737Z,82.90
2023-01-09T09:48:46.988Z,83.30
2023-01-09T09:51:25.935Z,83.50
2023-01-09T09:53:59.904Z,83.60
2023-01-09T09:56:29.108Z,83.50
2023-01-09T09:58:59.046Z,83.60
2023-01-09T10:01:30.822Z,83.80
2023-01-09T10:04:00.909Z,83.40
2023-01-09T10:06:31.935Z,83.40
2023-01-09T10:09:03.900Z,83.00
2023-01-09T10:11:36.360Z,83.10
2023-01-09T10:14:13.303Z,83.10
2023-01-09T10:17:03.406Z,83.30
2023-01-09T10:19:47.720Z,83.10
2023-01-09T10:22:24.978Z,82.80
2023-01-09T10:25:03.095Z,83.00
2023-01-09T10:27:35.875Z,83.30
2023-01-09T10:30:07.481Z,82.90
2023-01-09T10:32:44.838Z,82.90
2023-01-09T10:35:33.162Z,82.80
2023-01-09T10:38:14.711Z,82.50
2023-01-09T10:40:45.790Z,82.10
2023-01-09T10:43:17.579Z,81.80
2023-01-09T10:45:51.030Z,82.10
2023-01-09T10:48:25.439Z,82.20
2023-01-09T10:50:58.591Z,82.90
2023-01-09T10:53:30.055Z,83.00
2023-01-09T10:56:01.853Z,82.60
2023-01-09T10:58:30.252Z,82.60
2023-01-09T11:01:01.524Z,82.30
2023-01-09T11:03:30.894Z,82.40
2023-01-09T11:06:01.964Z,82.50
2023-01-09T11:08:33.929Z,82.30
2023-01-09T11:11:03.041Z,82.50
2023-01-09T11:13:32.354Z,82.40
2023-01-09T11:16:04.593Z,82.50
2023-01-09T11:18:34.566Z,82.30
2023-01-09T11:21:21.474Z,81.90
2023-01-09T11:23:51.360Z,81.70
2023-01-09T11:26:24.048Z,81.60
2023-01-09T11:29:09.771Z,81.60
2023-01-09T11:31:40.344Z,81.40
2023-01-09T11:34:08.767Z,80.80
2023-01-09T11:36:36.809Z,81.00
2023-01-09T11:39:07.200Z,80.70
2023-01-09T11:41:36.581Z,80.60
2023-01-09T11:44:06.113Z,80.80
2023-01-09T11:46:35.400Z,80.60
2023-01-09T11:49:04.299Z,80.60
2023-01-09T11:51:33.255Z,80.40
2023-01-09T11:54:15.198Z,80.50
2023-01-09T11:56:44.058Z,80.50
2023-01-09T11:59:13.221Z,80.50
2023-01-09T12:01:49.155Z,79.90
2023-01-09T12:04:23.549Z,80.00
2023-01-09T12:06:57.452Z,80.00
2023-01-09T12:09:29.451Z,80.30
2023-01-09T12:12:01.645Z,80.10
2023-01-09T12:14:38.083Z,80.00
2023-01-09T12:17:17.336Z,79.80
2023-01-09T12:19:53.697Z,79.60
2023-01-09T12:22:28.028Z,79.70
2023-01-09T12:25:05.777Z,79.50
2023-01-09T12:27:40.958Z,79.90
2023-01-09T12:30:20.878Z,80.00
2023-01-09T12:32:55.465Z,79.90
2023-01-09T12:35:31.415Z,80.20
2023-01-09T12:38:15.207Z,80.30
2023-01-09T12:41:03.365Z,80.10
2023-01-09T12:43:39.071Z,79.90
2023-01-09T12:46:13.703Z,79.60
2023-01-09T12:48:51.760Z,79.40
2023-01-09T12:51:27.222Z,79.80
2023-01-09T12:54:01.964Z,80.90
2023-01-09T12:56:34.447Z,81.00
2023-01-09T12:59:06.526Z,81.10
2023-01-09T13:01:40.219Z,81.10
2023-01-09T13:04:12.328Z,80.80
2023-01-09T13:06:43.768Z,80.70
2023-01-09T13:09:17.520Z,80.60
2023-01-09T13:11:48.891Z,80.70
2023-01-09T13:14:19.798Z,80.70
2023-01-09T13:16:49.541Z,81.00
2023-01-09T13:19:19.909Z,80.80
2023-01-09T13:21:48.715Z,80.90
2023-01-09T13:24:20.070Z,80.80
2023-01-09T13:26:51.478Z,81.00
2023-01-09T13:29:22.570Z,80.60
2023-01-09T13:31:59.046Z,80.50
2023-01-09T13:34:28.470Z,80.60
2023-01-09T13:36:57.627Z,80.60
2023-01-09T13:39:27.086Z,80.20
2023-01-09T13:42:16.354Z,80.10
2023-01-09T13:44:45.242Z,80.10
2023-01-09T13:47:17.262Z,80.50
2023-01-09T13:50:03.768Z,80.50
2023-01-09T13:52:34.367Z,80.10
2023-01-09T13:55:03.554Z,80.10
2023-01-09T13:57:35.054Z,80.00
2023-01-09T14:00:22.266Z,80.00
2023-01-09T14:03:05.663Z,79.60
2023-01-09T14:05:53.358Z,79.20
2023-01-09T14:08:23.127Z,78.90
2023-01-09T14:10:53.362Z,79.20
2023-01-09T14:13:25.235Z,79.00
2023-01-09T14:15:54.790Z,79.20
2023-01-09T14:18:24.934Z,79.30
2023-01-09T14:20:56.174Z,78.90
2023-01-09T14:23:50.447Z,79.30
2023-01-09T14:26:18.343Z,79.50
2023-01-09T14:28:47.938Z,79.50
2023-01-09T14:31:31.439Z,79.40
2023-01-09T14:34:23.791Z,79.40
2023-01-09T14:37:00.399Z,79.30
2023-01-09T14:39:32.345Z,78.70
2023-01-09T14:42:08.755Z,78.50
2023-01-09T14:44:45.854Z,78.40
2023-01-09T14:47:16.892Z,78.40
2023-01-09T14:49:47.558Z,78.40
2023-01-09T14:52:21.576Z,78.10
2023-01-09T14:54:50.495Z,78.00
2023-01-09T14:57:25.600Z,78.10
2023-01-09T15:00:03.756Z,78.10
2023-01-09T15:02:34.465Z,78.20
2023-01-09T15:05:06.392Z,78.30
2023-01-09T15:07:40.550Z,78.20
2023-01-09T15:10:09.899Z,78.30
2023-01-09T15:12:38.246Z,78.50
2023-01-09T15:15:13.950Z,78.70
2023-01-09T15:17:43.361Z,78.90
2023-01-09T15:20:19.211Z,78.80
2023-01-09T15:22:51.202Z,78.70
2023-01-09T15:25:37.733Z,78.60
2023-01-09T15:28:23.194Z,78.10
2023-01-09T15:30:55.544Z,78.20
2023-01-09T15:33:24.397Z,78.10
2023-01-09T15:35:59.971Z,78.10
2023-01-09T15:38:31.515Z,77.90
2023-01-09T15:41:00.318Z,78.20
2023-01-09T15:43:31.276Z,78.20
2023-01-09T15:46:01.934Z,78.30
2023-01-09T15:48:32.119Z,78.20
2023-01-09T15:51:04.039Z,78.20
2023-01-09T15:53:33.947Z,78.50
2023-01-09T15:56:06.394Z,78.70
2023-01-09T15:58:36.135Z,78.80
2023-01-09T16:01:10.299Z,79.00
2023-01-09T16:03:38.956Z,79.20
2023-01-09T16:06:10.145Z,79.10
2023-01-09T16:08:39.521Z,79.00
2023-01-09T16:11:10.873Z,78.70
2023-01-09T16:13:41.190Z,78.70
2023-01-09T16:16:12.409Z,78.90
2023-01-09T16:18:50.980Z,78.90
2023-01-09T16:21:24.457Z,78.90
2023-01-09T16:23:57.673Z,79.10
2023-01-09T16:26:31.884Z,79.20
2023-01-09T16:29:14.656Z,79.20
2023-01-09T16:31:44.599Z,79.50
2023-01-09T16:34:13.895Z,80.10
2023-01-09T16:36:42.088Z,80.40
2023-01-09T16:39:15.290Z,80.90
2023-01-09T16:42:01.758Z,81.30
2023-01-09T16:44:30.127Z,81.50
2023-01-09T16:47:00.200Z,81.70
2023-01-09T16:49:28.955Z,81.70
2023-01-09T16:51:57.253Z,81.90
2023-01-09T16:54:26.480Z,81.90
2023-01-09T16:56:56.200Z,81.80
2023-01-09T16:59:25.924Z,82.00
2023-01-09T17:01:54.648Z,81.90
2023-01-09T17:04:24.904Z,81.70
2023-01-09T17:06:53.639Z,81.60
2023-01-09T17:09:27.439Z,81.40
2023-01-09T17:11:56.692Z,81.10
2023-01-09T17:14:25.689Z,81.10
2023-01-09T17:16:53.928Z,81.20
2023-01-09T17:19:23.659Z,81.00
2023-01-09T17:21:53.685Z,80.90
2023-01-09T17:24:39.307Z,81.10
2023-01-09T17:27:25.820Z,80.80
2023-01-09T17:29:54.807Z,80.90
2023-01-09T17:32:23.136Z,81.00
2023-01-09T17:34:51.733Z,81.20
2023-01-09T17:37:21.290Z,81.50
2023-01-09T17:39:49.660Z,81.80
2023-01-09T17:42:19.262Z,81.70
2023-01-09T17:44:47.468Z,82.00
2023-01-09T17:47:16.433Z,82.10
2023-01-09T17:49:44.874Z,82.20
2023-01-09T17:52:13.121Z,82.30
2023-01-09T17:54:43.163Z,82.40
2023-01-09T17:57:16.103Z,82.50
2023-01-09T17:59:44.840Z,82.40
2023-01-09T18:02:17.461Z,82.40
2023-01-09T18:04:46.203Z,82.50
2023-01-09T18:07:15.171Z,82.50
2023-01-09T18:09:45.377Z,82.60
2023-01-09T18:12:14.052Z,82.50
2023-01-09T18:14:42.578Z,82.40
2023-01-09T18:17:13.168Z,82.60
2023-01-09T18:19:44.271Z,82.60
2023-01-09T18:22:13.268Z,82.60
2023-01-09T18:24:41.585Z,82.70
2023-01-09T18:27:11.652Z,82.30
2023-01-09T18:29:40.069Z,82.40
2023-01-09T18:32:08.817Z,82.40
2023-01-09T18:34:38.725Z,82.60
2023-01-09T18:37:07.085Z,82.40
2023-01-09T18:39:35.316Z,82.10
2023-01-09T18:42:04.635Z,82.10
2023-01-09T18:44:34.543Z,81.90
2023-01-09T18:47:03.116Z,81.90
2023-01-09T18:49:31.490Z,81.60
2023-01-09T18:52:00.204Z,81.50
2023-01-09T18:54:28.454Z,81.70
2023-01-09T18:56:56.539Z,81.60
2023-01-09T18:59:25.409Z,81.60
2023-01-09T19:01:55.661Z,81.60
2023-01-09T19:04:24.144Z,81.20
2023-01-09T19:06:52.876Z,81.30
2023-01-09T19:09:21.309Z,81.00
2023-01-09T19:11:49.279Z,81.00
2023-01-09T19:14:17.710Z,80.90
2023-01-09T19:16:45.853Z,81.00
2023-01-09T19:19:16.536Z,80.90
2023-01-09T19:21:45.820Z,81.00
2023-01-09T19:24:14.474Z,81.00
2023-01-09T19:26:43.166Z,81.10
2023-01-09T19:29:11.499Z,81.10
2023-01-09T19:31:40.056Z,81.10
2023-01-09T19:34:08.891Z,81.20
2023-01-09T19:36:38.530Z,81.20
2023-01-09T19:39:07.296Z,81.20
2023-01-09T19:41:35.962Z,81.40
2023-01-09T19:44:05.709Z,81.30
2023-01-09T19:46:35.612Z,81.40
2023-01-09T19:49:06.560Z,81.40
2023-01-09T19:51:35.207Z,81.40
2023-01-09T19:56:35.705Z,81.40
2023-01-09T19:59:05.353Z,81.40
2023-01-09T20:01:34.896Z,81.40
2023-01-09T20:04:07.803Z,81.50
2023-01-09T20:06:39.342Z,81.60
2023-01-09T20:09:11.286Z,81.70
2023-01-09T20:11:41.276Z,81.70
2023-01-09T20:14:13.200Z,81.80
2023-01-09T20:16:44.325Z,81.80
2023-01-09T20:19:13.494Z,81.80
2023-01-09T20:21:42.061Z,81.80
2023-01-09T20:24:12.649Z,81.90
2023-01-09T20:26:41.659Z,81.90
2023-01-09T20:29:10.021Z,81.80
2023-01-09T20:31:38.615Z,81.80
2023-01-09T20:34:07.197Z,81.60
2023-01-09T20:36:35.548Z,81.60
2023-01-09T20:39:06.162Z,81.50
2023-01-09T20:41:36.144Z,81.50
2023-01-09T20:44:06.998Z,81.50
2023-01-09T20:46:36.833Z,81.50
2023-01-09T20:49:08.794Z,81.40
2023-01-09T20:51:37.565Z,81.50
2023-01-09T20:54:05.836Z,81.50
2023-01-09T20:56:36.719Z,81.70
2023-01-09T20:59:06.383Z,81.80
2023-01-09T21:01:34.942Z,81.90
2023-01-09T21:04:03.380Z,82.10
2023-01-09T21:06:32.027Z,82.10
2023-01-09T21:09:00.252Z,82.30
2023-01-09T21:11:28.484Z,82.30
2023-01-09T21:14:00.625Z,82.40
2023-01-09T21:16:29.443Z,82.40
2023-01-09T21:18:57.776Z,82.30
2023-01-09T21:21:28.159Z,82.30
2023-01-09T21:23:57.524Z,82.20
2023-01-09T21:26:28.284Z,82.10
2023-01-09T21:28:59.963Z,82.10
2023-01-09T21:31:33.559Z,82.10
2023-01-09T21:34:05.871Z,81.90
2023-01-09T21:36:35.435Z,81.90
2023-01-09T21:39:07.668Z,81.90
2023-01-09T21:41:53.710Z,81.90
2023-01-09T21:44:41.029Z,81.90
2023-01-09T21:47:11.229Z,81.90
2023-01-09T21:49:40.948Z,82.00
2023-01-09T21:52:09.254Z,82.00
2023-01-09T21:54:37.655Z,82.00
2023-01-09T21:57:07.150Z,82.00
2023-01-09T21:59:37.560Z,82.00
2023-01-09T22:02:06.343Z,82.10
2023-01-09T22:04:34.909Z,82.10
2023-01-09T22:07:03.378Z,82.10
2023-01-09T22:09:31.800Z,82.10
2023-01-09T22:12:00.342Z,82.20
2023-01-09T22:14:28.376Z,82.10
2023-01-09T22:16:58.334Z,82.00
2023-01-09T22:19:29.684Z,82.10
2023-01-09T22:21:58.081Z,82.10
2023-01-09T22:24:26.707Z,81.90
2023-01-09T22:26:56.560Z,81.90
2023-01-09T22:29:24.520Z,81.90
2023-01-09T22:31:52.622Z,81.80
2023-01-09T22:34:23.278Z,81.90
2023-01-09T22:36:52.301Z,81.90
2023-01-09T22:39:20.927Z,82.00
2023-01-09T22:41:51.397Z,82.10
2023-01-09T22:44:20.426Z,82.10
2023-01-09T22:46:48.646Z,82.10
2023-01-09T22:49:16.952Z,82.30
2023-01-09T22:51:46.517Z,82.30
2023-01-09T22:54:14.626Z,82.40
2023-01-09T22:56:43.056Z,82.40
2023-01-09T22:59:11.463Z,82.50
2023-01-09T23:01:39.935Z,82.60
2023-01-09T23:04:08.077Z,82.60
2023-01-09T23:06:36.507Z,82.70
2023-01-09T23:09:07.940Z,82.90
2023-01-09T23:11:53.505Z,82.90
2023-01-09T23:14:23.424Z,83.10
2023-01-09T23:16:51.835Z,83.10
2023-01-09T23:19:19.900Z,83.20
2023-01-09T23:21:48.328Z,83.30
2023-01-09T23:24:18.651Z,83.30
2023-01-09T23:26:47.860Z,83.10
2023-01-09T23:29:16.115Z,82.90
2023-01-09T23:31:44.497Z,82.70
2023-01-09T23:34:14.815Z,82.60
2023-01-09T23:36:43.042Z,82.60
2023-01-09T23:39:10.948Z,82.60
2023-01-09T23:41:58.392Z,82.50
2023-01-09T23:44:26.640Z,82.50
2023-01-09T23:46:55.120Z,82.40
2023-01-09T23:49:23.466Z,82.50
2023-01-09T23:51:51.609Z,82.50
2023-01-09T23:54:21.415Z,82.50
2023-01-09T23:56:51.318Z,82.50
2023-01-09T23:59:19.508Z,82.50
